createdAt,value
2019-02-16T00:01:54.700Z,23.10
2019-02-16T00:04:21.234Z,22.77
2019-02-16T00:06:49.376Z,23.20
2019-02-16T00:09:15.474Z,23.50
2019-02-16T00:11:41.823Z,22.27
2019-02-16T00:14:07.899Z,23.40
2019-02-16T00:16:35.820Z,20.47
2019-02-16T00:19:01.886Z,23.50
2019-02-16T00:21:27.936Z,20.20
2019-02-16T00:23:54.009Z,19.67
2019-02-16T00:26:22.543Z,19.40
2019-02-16T00:28:48.603Z,20.60
2019-02-16T00:31:14.670Z,21.40
2019-02-16T00:33:40.762Z,20.20
2019-02-16T00:36:07.794Z,19.90
2019-02-16T00:38:33.828Z,18.30
2019-02-16T00:40:59.847Z,18.80
2019-02-16T00:43:25.910Z,16.57
2019-02-16T00:45:51.912Z,17.60
2019-02-16T00:48:19.019Z,17.47
2019-02-16T00:50:45.111Z,18.17
2019-02-16T00:53:11.326Z,17.93
2019-02-16T00:55:37.681Z,17.37
2019-02-16T00:58:06.473Z,18.27
2019-02-16T01:00:32.785Z,18.70
2019-02-16T01:02:58.819Z,18.80
2019-02-16T01:05:27.340Z,19.27
2019-02-16T01:07:53.444Z,19.33
2019-02-16T01:10:19.482Z,21.67
2019-02-16T01:12:45.507Z,21.03
2019-02-16T01:15:11.647Z,22.10
2019-02-16T01:17:37.758Z,21.10
2019-02-16T01:20:08.230Z,19.00
2019-02-16T01:22:34.285Z,20.10
2019-02-16T01:25:00.373Z,20.60
2019-02-16T01:27:26.396Z,20.53
2019-02-16T01:29:52.413Z,21.50
2019-02-16T01:32:18.487Z,21.30
2019-02-16T01:34:44.514Z,21.27
2019-02-16T01:37:10.554Z,21.90
2019-02-16T01:39:36.605Z,20.30
2019-02-16T01:42:04.017Z,19.93
2019-02-16T01:44:31.727Z,21.93
2019-02-16T01:46:57.790Z,21.07
2019-02-16T01:49:23.853Z,21.07
2019-02-16T01:51:49.894Z,18.57
2019-02-16T01:54:16.848Z,20.87
2019-02-16T01:56:43.883Z,21.07
2019-02-16T01:59:09.916Z,19.83
2019-02-16T02:01:35.950Z,18.33
2019-02-16T02:04:03.058Z,19.60
2019-02-16T02:06:30.598Z,19.60
2019-02-16T02:08:56.784Z,20.90
2019-02-16T02:11:22.842Z,19.90
2019-02-16T02:13:48.998Z,19.50
2019-02-16T02:16:16.259Z,22.30
2019-02-16T02:18:42.327Z,20.93
2019-02-16T02:21:08.581Z,19.57
2019-02-16T02:23:34.599Z,18.30
2019-02-16T02:26:01.716Z,18.40
2019-02-16T02:28:29.961Z,19.30
2019-02-16T02:30:56.041Z,18.80
2019-02-16T02:33:22.320Z,19.50
2019-02-16T02:35:48.394Z,19.33
2019-02-16T02:38:19.434Z,20.87
2019-02-16T02:40:47.304Z,19.43
2019-02-16T02:43:14.786Z,18.80
2019-02-16T02:45:45.673Z,20.13
2019-02-16T02:48:13.971Z,20.23
2019-02-16T02:50:40.460Z,18.63
2019-02-16T02:53:07.803Z,21.60
2019-02-16T02:55:33.986Z,20.73
2019-02-16T02:58:00.128Z,21.07
2019-02-16T03:00:28.052Z,20.60
2019-02-16T03:02:56.414Z,22.87
2019-02-16T03:05:22.894Z,22.30
2019-02-16T03:07:48.930Z,21.40
2019-02-16T03:10:15.160Z,20.90
2019-02-16T03:12:41.379Z,18.80
2019-02-16T03:15:07.698Z,17.10
2019-02-16T03:17:33.824Z,18.93
2019-02-16T03:20:00.039Z,18.80
2019-02-16T03:22:46.184Z,20.30
2019-02-16T03:25:12.222Z,19.80
2019-02-16T03:27:47.763Z,19.63
2019-02-16T03:30:30.859Z,18.85
2019-02-16T03:33:00.704Z,20.60
2019-02-16T03:35:39.510Z,19.40
2019-02-16T03:38:15.219Z,17.50
2019-02-16T03:40:44.041Z,16.82
2019-02-16T03:43:11.319Z,18.70
2019-02-16T03:45:37.311Z,16.80
2019-02-16T03:48:03.409Z,19.37
2019-02-16T03:50:32.571Z,17.60
2019-02-16T03:52:58.878Z,17.23
2019-02-16T03:55:24.958Z,17.55
2019-02-16T03:57:52.345Z,17.05
2019-02-16T04:00:18.645Z,19.62
2019-02-16T04:02:44.706Z,18.07
2019-02-16T04:05:10.835Z,17.87
2019-02-16T04:07:40.198Z,15.93
2019-02-16T04:10:06.374Z,17.50
2019-02-16T04:12:33.781Z,16.35
2019-02-16T04:15:02.499Z,18.48
2019-02-16T04:17:29.592Z,18.00
2019-02-16T04:19:55.678Z,18.98
2019-02-16T04:22:24.631Z,18.27
2019-02-16T04:24:49.860Z,17.77
2019-02-16T04:27:16.092Z,18.20
2019-02-16T04:29:44.563Z,18.45
2019-02-16T04:32:11.132Z,17.93
2019-02-16T04:34:37.226Z,16.63
2019-02-16T04:37:03.461Z,17.67
2019-02-16T04:39:30.713Z,18.25
2019-02-16T04:41:58.663Z,18.90
2019-02-16T04:44:24.674Z,19.07
2019-02-16T04:46:53.164Z,18.90
2019-02-16T04:49:19.176Z,19.50
2019-02-16T04:51:45.326Z,18.65
2019-02-16T04:54:12.852Z,20.10
2019-02-16T04:56:38.994Z,21.90
2019-02-16T04:59:05.079Z,22.50
2019-02-16T05:01:31.440Z,20.52
2019-02-16T05:03:58.384Z,20.68
2019-02-16T05:06:26.376Z,19.55
2019-02-16T05:08:52.382Z,19.50
2019-02-16T05:11:18.468Z,17.50
2019-02-16T05:13:44.831Z,19.40
2019-02-16T05:16:10.884Z,19.60
2019-02-16T05:18:37.019Z,20.72
2019-02-16T05:21:04.233Z,18.45
2019-02-16T05:23:30.591Z,20.57
2019-02-16T05:25:56.592Z,18.77
2019-02-16T05:28:22.677Z,19.55
2019-02-16T05:30:48.743Z,19.27
2019-02-16T05:33:14.800Z,19.77
2019-02-16T05:35:41.095Z,19.82
2019-02-16T05:38:07.177Z,18.92
2019-02-16T05:40:34.335Z,18.82
2019-02-16T05:43:01.182Z,18.05
2019-02-16T05:45:27.267Z,18.50
2019-02-16T05:47:54.801Z,20.48
2019-02-16T05:50:20.824Z,18.90
2019-02-16T05:52:54.566Z,19.80
2019-02-16T05:55:17.073Z,19.67
2019-02-16T05:57:44.432Z,19.02
2019-02-16T06:00:13.557Z,19.60
2019-02-16T06:02:39.602Z,19.90
2019-02-16T06:05:05.718Z,21.30
2019-02-16T06:07:33.161Z,19.87
2019-02-16T06:10:02.970Z,20.72
2019-02-16T06:12:29.052Z,19.40
2019-02-16T06:14:55.092Z,18.77
2019-02-16T06:17:21.379Z,19.35
2019-02-16T06:19:49.090Z,18.95
2019-02-16T06:22:15.520Z,18.92
2019-02-16T06:24:41.581Z,19.45
2019-02-16T06:27:07.656Z,18.77
2019-02-16T06:29:35.078Z,18.90
2019-02-16T06:32:01.180Z,19.48
2019-02-16T06:34:29.237Z,19.80
2019-02-16T06:36:58.276Z,19.23
2019-02-16T06:39:24.885Z,18.62
2019-02-16T06:41:55.046Z,20.10
2019-02-16T06:44:21.533Z,20.77
2019-02-16T06:46:49.903Z,20.97
2019-02-16T06:49:18.206Z,19.37
2019-02-16T06:51:46.015Z,21.15
2019-02-16T06:54:14.278Z,19.98
2019-02-16T06:56:59.141Z,20.27
2019-02-16T06:59:27.310Z,19.60
2019-02-16T07:01:54.761Z,19.73
2019-02-16T07:04:23.624Z,21.20
2019-02-16T07:06:49.713Z,21.35
2019-02-16T07:09:15.775Z,21.45
2019-02-16T07:11:42.044Z,20.80
2019-02-16T07:14:11.680Z,21.70
2019-02-16T07:16:48.361Z,21.23
2019-02-16T07:19:23.252Z,41.37
2019-02-16T07:21:49.327Z,57.60
2019-02-16T07:24:15.474Z,30.55
2019-02-16T07:26:43.531Z,31.12
2019-02-16T07:29:10.189Z,32.63
2019-02-16T07:31:36.216Z,25.60
2019-02-16T07:34:03.624Z,36.93
2019-02-16T07:36:31.642Z,23.77
2019-02-16T07:38:57.969Z,19.95
2019-02-16T07:41:24.305Z,20.70
2019-02-16T07:43:58.700Z,21.60
2019-02-16T07:46:33.267Z,21.10
2019-02-16T07:49:19.418Z,20.72
2019-02-16T07:51:48.497Z,22.65
2019-02-16T07:54:19.297Z,22.00
2019-02-16T07:56:51.558Z,21.23
2019-02-16T07:59:28.600Z,22.20
2019-02-16T08:02:01.820Z,21.17
2019-02-16T08:04:46.264Z,20.97
2019-02-16T08:07:21.877Z,22.13
2019-02-16T08:09:49.866Z,22.35
2019-02-16T08:12:24.010Z,22.52
2019-02-16T08:14:52.152Z,20.77
2019-02-16T08:17:38.280Z,20.88
2019-02-16T08:20:07.786Z,22.07
2019-02-16T08:22:38.258Z,22.80
2019-02-16T08:25:06.384Z,22.35
2019-02-16T08:27:47.785Z,20.52
2019-02-16T08:30:32.808Z,21.17
2019-02-16T08:33:19.481Z,20.60
2019-02-16T08:36:04.418Z,20.90
2019-02-16T08:38:34.188Z,21.10
2019-02-16T08:41:07.043Z,21.73
2019-02-16T08:43:53.079Z,20.57
2019-02-16T08:46:23.808Z,22.37
2019-02-16T08:49:14.439Z,20.63
2019-02-16T08:51:45.216Z,21.27
2019-02-16T08:54:13.265Z,20.30
2019-02-16T08:56:50.049Z,20.83
2019-02-16T08:59:22.033Z,20.97
2019-02-16T09:01:54.267Z,20.57
2019-02-16T09:04:37.043Z,22.23
2019-02-16T09:07:14.242Z,22.37
2019-02-16T09:09:47.736Z,23.57
2019-02-16T09:12:30.283Z,22.60
2019-02-16T09:15:00.898Z,23.27
2019-02-16T09:17:31.570Z,22.67
2019-02-16T09:20:02.463Z,23.90
2019-02-16T09:22:33.485Z,24.57
2019-02-16T09:25:01.544Z,23.87
2019-02-16T09:27:50.265Z,23.83
2019-02-16T09:30:19.508Z,22.10
2019-02-16T09:32:47.579Z,24.97
2019-02-16T09:35:21.438Z,24.17
2019-02-16T09:37:58.163Z,23.30
2019-02-16T09:40:34.642Z,22.60
2019-02-16T09:43:03.004Z,23.90
2019-02-16T09:45:31.996Z,24.13
2019-02-16T09:48:09.091Z,23.63
2019-02-16T09:50:37.284Z,23.17
2019-02-16T09:53:12.388Z,22.87
2019-02-16T09:55:55.465Z,23.27
2019-02-16T09:58:25.970Z,23.83
2019-02-16T10:00:54.096Z,24.20
2019-02-16T10:03:22.171Z,23.50
2019-02-16T10:06:09.984Z,24.40
2019-02-16T10:08:57.195Z,23.57
2019-02-16T10:11:25.198Z,22.53
2019-02-16T10:14:09.655Z,23.30
2019-02-16T10:16:47.172Z,24.63
2019-02-16T10:19:24.097Z,23.60
2019-02-16T10:22:09.474Z,24.70
2019-02-16T10:24:55.565Z,24.30
2019-02-16T10:27:26.425Z,23.80
2019-02-16T10:29:57.223Z,25.33
2019-02-16T10:32:27.360Z,25.73
2019-02-16T10:35:01.192Z,24.60
2019-02-16T10:37:32.180Z,25.60
2019-02-16T10:40:00.513Z,25.03
2019-02-16T10:42:36.925Z,27.00
2019-02-16T10:45:10.934Z,25.77
2019-02-16T10:47:43.904Z,24.77
2019-02-16T10:50:11.909Z,25.40
2019-02-16T10:52:57.773Z,26.03
2019-02-16T10:55:42.553Z,26.47
2019-02-16T10:58:27.116Z,27.50
2019-02-16T11:01:00.202Z,25.10
2019-02-16T11:03:36.984Z,25.67
2019-02-16T11:06:05.320Z,25.97
2019-02-16T11:08:37.151Z,27.80
2019-02-16T11:11:05.363Z,28.50
2019-02-16T11:13:41.922Z,26.00
2019-02-16T11:16:17.769Z,27.60
2019-02-16T11:18:47.271Z,24.60
2019-02-16T11:21:21.234Z,26.07
2019-02-16T11:24:09.077Z,25.40
2019-02-16T11:26:42.804Z,24.13
2019-02-16T11:29:27.099Z,24.77
2019-02-16T11:31:55.082Z,24.07
2019-02-16T11:34:41.324Z,24.00
2019-02-16T11:37:10.344Z,23.40
2019-02-16T11:39:38.264Z,23.13
2019-02-16T11:42:21.512Z,23.67
2019-02-16T11:44:59.210Z,24.27
2019-02-16T11:47:45.728Z,24.07
2019-02-16T11:50:22.680Z,22.90
2019-02-16T11:52:54.874Z,23.17
2019-02-16T11:55:30.694Z,23.27
2019-02-16T11:58:04.423Z,23.23
2019-02-16T12:00:33.051Z,22.60
2019-02-16T12:03:03.866Z,22.80
2019-02-16T12:05:31.805Z,23.50
2019-02-16T12:08:00.052Z,22.60
2019-02-16T12:10:27.947Z,23.70
2019-02-16T12:13:16.185Z,23.03
2019-02-16T12:15:49.778Z,23.10
2019-02-16T12:18:29.734Z,22.07
2019-02-16T12:21:03.611Z,22.63
2019-02-16T12:23:34.780Z,22.60
2019-02-16T12:26:18.851Z,21.50
2019-02-16T12:28:56.724Z,21.77
2019-02-16T12:31:33.542Z,22.50
2019-02-16T12:34:01.685Z,22.30
2019-02-16T12:36:35.180Z,22.80
2019-02-16T12:39:19.569Z,22.17
2019-02-16T12:41:50.572Z,22.70
2019-02-16T12:44:34.924Z,22.70
2019-02-16T12:47:17.788Z,21.63
2019-02-16T12:49:54.549Z,22.27
2019-02-16T12:52:25.253Z,21.90
2019-02-16T12:55:14.755Z,21.03
2019-02-16T12:57:40.855Z,21.80
2019-02-16T13:00:28.782Z,20.90
2019-02-16T13:03:14.813Z,21.47
2019-02-16T13:06:00.703Z,22.83
2019-02-16T13:08:37.666Z,21.67
2019-02-16T13:11:11.183Z,22.33
2019-02-16T13:13:45.245Z,22.50
2019-02-16T13:16:19.277Z,22.83
2019-02-16T13:18:51.296Z,22.70
2019-02-16T13:21:22.995Z,21.77
2019-02-16T13:23:54.754Z,23.20
2019-02-16T13:26:30.038Z,22.53
2019-02-16T13:29:04.060Z,23.47
2019-02-16T13:31:28.110Z,22.50
2019-02-16T13:34:00.809Z,24.77
2019-02-16T13:36:33.343Z,21.60
2019-02-16T13:39:17.387Z,21.17
2019-02-16T13:41:45.426Z,23.97
2019-02-16T13:44:16.314Z,24.43
2019-02-16T13:46:45.291Z,23.33
2019-02-16T13:49:13.421Z,19.63
2019-02-16T13:51:45.224Z,22.70
2019-02-16T13:54:15.690Z,25.70
2019-02-16T13:56:49.826Z,24.10
2019-02-16T13:59:20.408Z,25.40
2019-02-16T14:01:52.316Z,24.90
2019-02-16T14:04:36.571Z,20.10
2019-02-16T14:07:25.313Z,23.90
2019-02-16T14:09:53.347Z,22.50
2019-02-16T14:12:23.860Z,23.80
2019-02-16T14:15:08.504Z,24.60
2019-02-16T14:17:42.531Z,25.07
2019-02-16T14:20:08.753Z,24.70
2019-02-16T14:22:34.878Z,25.10
2019-02-16T14:25:01.667Z,25.80
2019-02-16T14:27:27.815Z,24.70
2019-02-16T14:29:53.907Z,26.97
2019-02-16T14:32:19.942Z,27.27
2019-02-16T14:34:47.341Z,24.40
2019-02-16T14:37:29.128Z,23.90
2019-02-16T14:39:55.172Z,24.83
2019-02-16T14:42:21.295Z,25.40
2019-02-16T14:44:49.292Z,23.53
2019-02-16T14:47:15.382Z,25.20
2019-02-16T14:49:41.887Z,25.53
2019-02-16T14:52:16.747Z,24.93
2019-02-16T14:54:49.941Z,25.33
2019-02-16T14:57:17.209Z,23.90
2019-02-16T14:59:43.874Z,25.23
2019-02-16T15:02:09.901Z,26.47
2019-02-16T15:04:43.169Z,24.60
2019-02-16T15:07:09.324Z,26.33
2019-02-16T15:09:37.074Z,25.93
2019-02-16T15:12:03.851Z,25.40
2019-02-16T15:14:29.982Z,24.50
2019-02-16T15:16:56.007Z,26.60
2019-02-16T15:19:22.197Z,25.03
2019-02-16T15:21:52.379Z,25.70
2019-02-16T15:24:18.695Z,26.57
2019-02-16T15:26:44.698Z,26.93
2019-02-16T15:29:10.938Z,25.87
2019-02-16T15:31:37.100Z,27.00
2019-02-16T15:34:03.329Z,26.20
2019-02-16T15:36:32.398Z,23.30
2019-02-16T15:38:58.481Z,25.10
2019-02-16T15:41:26.078Z,25.37
2019-02-16T15:43:52.290Z,24.00
2019-02-16T15:46:18.313Z,27.17
2019-02-16T15:48:44.678Z,24.27
2019-02-16T15:51:13.756Z,24.90
2019-02-16T15:53:39.860Z,25.23
2019-02-16T15:56:10.625Z,24.20
2019-02-16T15:58:34.581Z,24.70
2019-02-16T16:01:00.765Z,26.13
2019-02-16T16:03:26.930Z,23.67
2019-02-16T16:05:56.283Z,28.90
2019-02-16T16:08:29.064Z,27.93
2019-02-16T16:10:57.682Z,28.20
2019-02-16T16:13:31.582Z,28.70
2019-02-16T16:15:59.530Z,26.70
2019-02-16T16:18:33.684Z,24.50
2019-02-16T16:21:04.467Z,26.13
2019-02-16T16:23:32.478Z,26.70
2019-02-16T16:26:19.285Z,25.80
2019-02-16T16:29:08.225Z,26.77
2019-02-16T16:31:44.267Z,27.83
2019-02-16T16:34:26.974Z,26.47
2019-02-16T16:37:12.973Z,25.93
2019-02-16T16:40:00.964Z,26.87
2019-02-16T16:42:33.068Z,25.57
2019-02-16T16:45:01.569Z,28.87
2019-02-16T16:47:38.335Z,26.60
2019-02-16T16:50:24.085Z,26.37
2019-02-16T16:53:08.581Z,27.80
2019-02-16T16:55:56.304Z,30.53
2019-02-16T16:58:28.849Z,28.67
2019-02-16T17:01:12.558Z,27.07
2019-02-16T17:03:49.440Z,30.40
2019-02-16T17:06:24.359Z,29.60
2019-02-16T17:09:01.809Z,27.87
2019-02-16T17:11:29.923Z,28.67
2019-02-16T17:14:03.494Z,27.30
2019-02-16T17:16:50.408Z,28.63
2019-02-16T17:19:18.469Z,29.97
2019-02-16T17:22:02.822Z,27.07
2019-02-16T17:24:39.723Z,29.40
2019-02-16T17:27:10.440Z,30.07
2019-02-16T17:29:38.504Z,29.27
2019-02-16T17:32:22.849Z,30.30
2019-02-16T17:35:07.057Z,29.30
2019-02-16T17:37:36.331Z,30.57
2019-02-16T17:40:23.555Z,30.43
2019-02-16T17:43:10.723Z,33.27
2019-02-16T17:45:40.166Z,36.83
2019-02-16T17:48:10.964Z,35.57
2019-02-16T17:50:58.308Z,33.10
2019-02-16T17:53:44.216Z,34.17
2019-02-16T17:56:14.633Z,37.30
2019-02-16T17:58:57.457Z,33.30
2019-02-16T18:01:41.639Z,39.40
2019-02-16T18:04:11.468Z,36.80
2019-02-16T18:06:42.323Z,40.50
2019-02-16T18:09:35.216Z,39.73
2019-02-16T18:12:10.796Z,40.90
2019-02-16T18:14:40.145Z,41.40
2019-02-16T18:17:11.059Z,41.63
2019-02-16T18:19:52.293Z,40.40
2019-02-16T18:22:29.047Z,38.47
2019-02-16T18:25:11.262Z,39.70
2019-02-16T18:27:44.754Z,41.10
2019-02-16T18:30:15.775Z,41.77
2019-02-16T18:32:46.070Z,40.43
2019-02-16T18:35:23.759Z,43.17
2019-02-16T18:38:03.978Z,41.40
2019-02-16T18:40:35.880Z,41.80
2019-02-16T18:43:12.897Z,41.73
2019-02-16T18:45:49.732Z,39.17
2019-02-16T18:48:17.720Z,38.00
2019-02-16T18:50:56.722Z,35.20
2019-02-16T18:53:41.216Z,33.13
2019-02-16T18:56:09.503Z,31.27
2019-02-16T18:58:40.791Z,32.83
2019-02-16T19:01:11.943Z,32.70
2019-02-16T19:03:48.933Z,33.83
2019-02-16T19:06:36.301Z,39.33
2019-02-16T19:09:08.436Z,36.37
2019-02-16T19:11:37.428Z,39.33
2019-02-16T19:14:10.288Z,40.10
2019-02-16T19:16:43.890Z,41.33
2019-02-16T19:19:19.281Z,39.13
2019-02-16T19:21:54.900Z,41.27
2019-02-16T19:24:28.462Z,38.57
2019-02-16T19:27:16.736Z,41.53
2019-02-16T19:29:43.738Z,39.07
2019-02-16T19:32:29.623Z,39.40
2019-02-16T19:34:59.293Z,40.67
2019-02-16T19:37:28.703Z,39.13
2019-02-16T19:39:59.770Z,39.67
2019-02-16T19:42:33.085Z,38.47
2019-02-16T19:45:18.977Z,37.77
2019-02-16T19:47:48.686Z,37.67
2019-02-16T19:50:33.774Z,43.90
2019-02-16T19:53:05.337Z,38.70
2019-02-16T19:55:36.043Z,36.03
2019-02-16T19:58:20.696Z,36.97
2019-02-16T20:00:51.644Z,38.63
2019-02-16T20:03:19.669Z,35.60
2019-02-16T20:06:04.151Z,36.30
2019-02-16T20:08:34.785Z,36.60
2019-02-16T20:11:15.057Z,38.93
2019-02-16T20:13:52.988Z,41.23
2019-02-16T20:16:48.101Z,38.23
2019-02-16T20:19:21.167Z,39.53
2019-02-16T20:21:53.474Z,39.70
2019-02-16T20:24:24.301Z,39.23
2019-02-16T20:27:07.622Z,38.80
2019-02-16T20:29:38.251Z,37.70
2019-02-16T20:32:25.074Z,37.30
2019-02-16T20:35:09.256Z,37.90
2019-02-16T20:37:39.318Z,37.07
2019-02-16T20:40:10.246Z,41.47
2019-02-16T20:42:41.346Z,38.50
2019-02-16T20:45:21.887Z,37.90
2019-02-16T20:48:02.099Z,36.40
2019-02-16T20:50:39.875Z,37.40
2019-02-16T20:53:12.043Z,34.53
2019-02-16T20:55:45.739Z,34.77
2019-02-16T20:58:31.726Z,35.90
2019-02-16T21:01:10.967Z,35.80
2019-02-16T21:03:47.288Z,37.13
2019-02-16T21:06:32.486Z,38.00
2019-02-16T21:09:12.190Z,39.37
2019-02-16T21:11:45.981Z,39.40
2019-02-16T21:14:19.737Z,33.30
2019-02-16T21:16:56.968Z,36.50
2019-02-16T21:19:37.804Z,38.93
2019-02-16T21:22:11.705Z,40.60
2019-02-16T21:24:45.775Z,38.87
2019-02-16T21:27:13.940Z,39.93
2019-02-16T21:29:58.812Z,39.27
2019-02-16T21:32:30.741Z,38.73
2019-02-16T21:35:04.428Z,38.27
2019-02-16T21:37:43.559Z,33.73
2019-02-16T21:40:16.030Z,35.57
2019-02-16T21:42:46.603Z,36.07
2019-02-16T21:45:15.634Z,34.60
2019-02-16T21:47:52.218Z,36.57
2019-02-16T21:50:36.649Z,34.17
2019-02-16T21:53:22.634Z,52.77
2019-02-16T21:56:01.464Z,35.57
2019-02-16T21:58:33.803Z,35.47
2019-02-16T22:01:21.332Z,36.30
2019-02-16T22:03:57.779Z,35.37
2019-02-16T22:06:29.818Z,35.20
2019-02-16T22:08:57.776Z,36.73
2019-02-16T22:11:25.718Z,33.63
2019-02-16T22:13:51.726Z,34.60
2019-02-16T22:16:20.999Z,36.10
2019-02-16T22:18:47.112Z,36.20
2019-02-16T22:21:13.172Z,34.30
2019-02-16T22:23:46.363Z,35.30
2019-02-16T22:26:12.416Z,36.20
2019-02-16T22:28:38.480Z,36.40
2019-02-16T22:31:04.500Z,34.40
2019-02-16T22:33:30.614Z,35.53
2019-02-16T22:35:56.686Z,35.67
2019-02-16T22:38:22.780Z,36.20
2019-02-16T22:40:52.010Z,34.17
2019-02-16T22:43:18.108Z,36.23
2019-02-16T22:45:45.143Z,35.73
2019-02-16T22:48:13.158Z,37.13
2019-02-16T22:50:39.974Z,34.50
2019-02-16T22:53:09.102Z,35.67
2019-02-16T22:55:37.080Z,34.20
2019-02-16T22:58:04.745Z,36.70
2019-02-16T23:00:44.442Z,37.37
2019-02-16T23:03:11.019Z,36.93
2019-02-16T23:05:39.167Z,36.20
2019-02-16T23:08:05.493Z,35.17
2019-02-16T23:10:33.045Z,35.20
2019-02-16T23:12:59.058Z,34.87
2019-02-16T23:15:26.212Z,34.23
2019-02-16T23:17:54.802Z,34.50
2019-02-16T23:20:20.873Z,35.20
2019-02-16T23:22:46.952Z,32.83
2019-02-16T23:25:13.328Z,33.20
2019-02-16T23:27:39.427Z,34.20
2019-02-16T23:30:11.179Z,35.20
2019-02-16T23:32:44.460Z,32.77
2019-02-16T23:35:11.498Z,36.30
2019-02-16T23:37:48.115Z,36.13
2019-02-16T23:40:09.613Z,34.43
2019-02-16T23:42:37.247Z,35.97
2019-02-16T23:45:06.142Z,34.60
2019-02-16T23:47:32.267Z,34.93
2019-02-16T23:50:00.913Z,39.70
2019-02-16T23:52:28.495Z,36.23
2019-02-16T23:54:54.528Z,35.90
2019-02-16T23:57:20.582Z,35.30
2019-02-16T23:59:46.673Z,36.53
